createdAt,value
2023-05-19T00:00:31.930Z,97.60
2023-05-19T00:03:21.618Z,97.70
2023-05-19T00:06:09.426Z,97.90
2023-05-19T00:09:05.318Z,98.20
2023-05-19T00:11:53.133Z,98.00
2023-05-19T00:14:40.994Z,98.30
2023-05-19T00:17:28.528Z,98.40
2023-05-19T00:20:17.352Z,98.60
2023-05-19T00:23:04.688Z,98.60
2023-05-19T00:25:53.935Z,98.50
2023-05-19T00:28:41.306Z,98.60
2023-05-19T00:31:29.011Z,98.80
2023-05-19T00:34:17.622Z,98.90
2023-05-19T00:37:04.995Z,98.80
2023-05-19T00:39:52.463Z,99.10
2023-05-19T00:42:40.788Z,99.10
2023-05-19T00:45:29.583Z,99.10
2023-05-19T00:48:18.876Z,99.20
2023-05-19T00:51:06.892Z,99.10
2023-05-19T00:53:54.776Z,99.20
2023-05-19T00:56:42.806Z,99.40
2023-05-19T00:59:30.054Z,99.50
2023-05-19T01:02:17.988Z,99.70
2023-05-19T01:05:08.917Z,99.70
2023-05-19T01:07:56.885Z,99.90
2023-05-19T01:10:44.435Z,99.90
2023-05-19T01:13:32.366Z,99.90
2023-05-19T01:16:32.028Z,99.90
2023-05-19T01:19:56.444Z,99.90
2023-05-19T01:23:07.900Z,99.90
2023-05-19T01:26:13.775Z,99.90
2023-05-19T01:29:25.672Z,99.90
2023-05-19T01:32:14.857Z,99.90
2023-05-19T01:35:03.929Z,99.90
2023-05-19T01:37:54.431Z,99.90
2023-05-19T01:40:43.792Z,99.90
2023-05-19T01:43:31.755Z,99.90
2023-05-19T01:46:20.184Z,99.90
2023-05-19T01:49:08.562Z,99.90
2023-05-19T01:51:56.008Z,99.90
2023-05-19T01:54:43.606Z,99.90
2023-05-19T01:57:50.632Z,99.90
2023-05-19T02:00:56.508Z,99.90
2023-05-19T02:04:04.096Z,99.90
2023-05-19T02:07:03.309Z,99.90
2023-05-19T02:10:01.397Z,99.90
2023-05-19T02:12:52.125Z,99.90
2023-05-19T02:15:43.559Z,99.90
2023-05-19T02:18:33.175Z,99.90
2023-05-19T02:21:20.450Z,99.90
2023-05-19T02:24:08.498Z,99.90
2023-05-19T02:26:59.018Z,99.90
2023-05-19T02:29:48.767Z,99.90
2023-05-19T02:32:36.628Z,99.90
2023-05-19T02:35:24.333Z,99.90
2023-05-19T02:38:12.172Z,99.90
2023-05-19T02:40:59.866Z,99.90
2023-05-19T02:43:49.305Z,99.90
2023-05-19T02:46:36.832Z,99.90
2023-05-19T02:49:24.118Z,99.90
2023-05-19T02:52:12.215Z,99.90
2023-05-19T02:54:59.717Z,99.90
2023-05-19T02:57:48.894Z,99.90
2023-05-19T03:00:36.412Z,99.90
2023-05-19T03:03:24.175Z,99.90
2023-05-19T03:06:12.970Z,99.90
2023-05-19T03:09:00.364Z,99.90
2023-05-19T03:11:47.815Z,99.90
2023-05-19T03:14:37.746Z,99.90
2023-05-19T03:17:25.623Z,99.90
2023-05-19T03:20:15.113Z,99.90
2023-05-19T03:23:02.506Z,99.90
2023-05-19T03:25:50.206Z,99.90
2023-05-19T03:28:37.751Z,99.90
2023-05-19T03:31:26.625Z,99.90
2023-05-19T03:34:14.260Z,99.90
2023-05-19T03:37:01.989Z,99.90
2023-05-19T03:39:49.676Z,99.90
2023-05-19T03:42:37.296Z,99.90
2023-05-19T03:45:24.712Z,99.90
2023-05-19T03:48:12.585Z,99.90
2023-05-19T03:51:00.495Z,99.90
2023-05-19T03:53:48.729Z,99.90
2023-05-19T03:56:41.302Z,99.90
2023-05-19T03:59:31.273Z,99.90
2023-05-19T04:02:21.524Z,99.90
2023-05-19T04:05:09.862Z,99.90
2023-05-19T04:07:57.250Z,99.90
2023-05-19T04:10:44.826Z,99.90
2023-05-19T04:13:34.644Z,99.90
2023-05-19T04:16:22.098Z,99.90
2023-05-19T04:19:09.848Z,99.90
2023-05-19T04:21:57.540Z,99.90
2023-05-19T04:24:46.318Z,99.90
2023-05-19T04:27:35.196Z,99.90
2023-05-19T04:30:22.895Z,99.90
2023-05-19T04:33:10.792Z,99.90
2023-05-19T04:35:58.396Z,99.90
2023-05-19T04:38:49.201Z,99.90
2023-05-19T04:41:38.445Z,99.90
2023-05-19T04:44:26.308Z,99.90
2023-05-19T04:47:15.016Z,99.90
2023-05-19T04:50:02.323Z,99.90
2023-05-19T04:52:49.918Z,99.90
2023-05-19T04:55:38.536Z,99.90
2023-05-19T04:58:26.390Z,99.90
2023-05-19T05:01:27.138Z,99.90
2023-05-19T05:04:14.573Z,99.90
2023-05-19T05:07:02.435Z,99.90
2023-05-19T05:09:50.337Z,99.90
2023-05-19T05:12:38.046Z,99.90
2023-05-19T05:15:27.361Z,99.90
2023-05-19T05:18:15.836Z,99.90
2023-05-19T05:21:03.975Z,99.90
2023-05-19T05:23:54.051Z,99.90
2023-05-19T05:26:41.795Z,99.90
2023-05-19T05:29:29.400Z,99.90
2023-05-19T05:32:19.487Z,99.90
2023-05-19T05:35:07.335Z,99.90
2023-05-19T05:37:55.001Z,99.90
2023-05-19T05:40:42.610Z,99.90
2023-05-19T05:43:31.096Z,99.90
2023-05-19T05:46:18.423Z,99.90
2023-05-19T05:49:06.357Z,99.90
2023-05-19T05:52:05.571Z,99.90
2023-05-19T05:54:43.580Z,99.90
2023-05-19T05:57:35.468Z,99.90
2023-05-19T06:00:22.599Z,99.90
2023-05-19T06:03:11.192Z,99.90
2023-05-19T06:05:58.943Z,99.90
2023-05-19T06:08:47.233Z,99.90
2023-05-19T06:11:34.864Z,99.90
2023-05-19T06:14:22.481Z,99.90
2023-05-19T06:17:10.010Z,99.90
2023-05-19T06:19:57.668Z,99.90
2023-05-19T06:22:45.057Z,99.90
2023-05-19T06:25:32.743Z,99.90
2023-05-19T06:28:20.888Z,99.90
2023-05-19T06:31:08.454Z,99.90
2023-05-19T06:33:56.367Z,99.90
2023-05-19T06:36:43.657Z,99.90
2023-05-19T06:39:31.299Z,99.90
2023-05-19T06:42:22.631Z,99.90
2023-05-19T06:45:10.736Z,99.90
2023-05-19T06:47:58.345Z,99.90
2023-05-19T06:50:47.254Z,99.90
2023-05-19T06:53:35.344Z,99.90
2023-05-19T06:56:23.107Z,99.90
2023-05-19T06:59:10.798Z,99.90
2023-05-19T07:01:58.617Z,99.90
2023-05-19T07:04:47.448Z,99.90
2023-05-19T07:07:34.887Z,98.90
2023-05-19T07:10:22.632Z,98.80
2023-05-19T07:13:09.985Z,99.70
2023-05-19T07:15:57.552Z,98.60
2023-05-19T07:18:45.342Z,99.10
2023-05-19T07:21:32.810Z,99.00
2023-05-19T07:24:21.293Z,98.60
2023-05-19T07:27:10.319Z,98.10
2023-05-19T07:29:57.986Z,98.10
2023-05-19T07:32:45.096Z,98.60
2023-05-19T07:35:32.510Z,98.00
2023-05-19T07:38:20.190Z,98.10
2023-05-19T07:41:07.826Z,98.40
2023-05-19T07:43:55.100Z,98.00
2023-05-19T07:46:42.831Z,97.60
2023-05-19T07:49:30.221Z,97.40
2023-05-19T07:52:18.344Z,97.70
2023-05-19T07:55:06.118Z,98.10
2023-05-19T07:57:53.439Z,98.60
2023-05-19T08:00:42.314Z,97.80
2023-05-19T08:03:30.997Z,98.10
2023-05-19T08:06:18.494Z,98.10
2023-05-19T08:09:06.246Z,98.20
2023-05-19T08:11:53.539Z,98.30
2023-05-19T08:14:41.299Z,97.40
2023-05-19T08:17:28.929Z,97.40
2023-05-19T08:20:19.612Z,97.60
2023-05-19T08:23:07.519Z,98.10
2023-05-19T08:25:55.080Z,98.40
2023-05-19T08:28:42.714Z,97.60
2023-05-19T08:31:30.260Z,97.70
2023-05-19T08:34:18.057Z,97.20
2023-05-19T08:37:05.774Z,97.70
2023-05-19T08:39:53.167Z,96.90
2023-05-19T08:42:40.804Z,96.90
2023-05-19T08:45:28.485Z,96.10
2023-05-19T08:48:18.233Z,95.90
2023-05-19T08:51:28.416Z,94.50
2023-05-19T08:54:20.735Z,94.00
2023-05-19T08:57:10.079Z,94.50
2023-05-19T08:59:58.373Z,94.30
2023-05-19T09:02:59.693Z,93.10
2023-05-19T09:05:58.808Z,93.10
2023-05-19T09:08:48.278Z,91.70
2023-05-19T09:11:38.783Z,91.70
2023-05-19T09:14:26.669Z,91.90
2023-05-19T09:17:14.276Z,91.30
2023-05-19T09:20:07.661Z,90.80
2023-05-19T09:22:55.201Z,91.80
2023-05-19T09:25:50.754Z,92.10
2023-05-19T09:28:38.309Z,93.60
2023-05-19T09:31:25.638Z,92.40
2023-05-19T09:34:15.874Z,91.00
2023-05-19T09:37:03.699Z,92.10
2023-05-19T09:39:52.857Z,91.00
2023-05-19T09:42:41.407Z,91.60
2023-05-19T09:45:29.109Z,88.90
2023-05-19T09:48:16.861Z,87.70
2023-05-19T09:51:07.597Z,89.90
2023-05-19T09:53:55.054Z,88.40
2023-05-19T09:56:42.738Z,89.70
2023-05-19T09:59:33.552Z,87.80
2023-05-19T10:02:23.547Z,82.90
2023-05-19T10:05:15.696Z,82.50
2023-05-19T10:08:05.834Z,85.80
2023-05-19T10:10:53.309Z,81.80
2023-05-19T10:13:40.553Z,77.70
2023-05-19T10:16:30.817Z,77.90
2023-05-19T10:19:19.813Z,81.80
2023-05-19T10:22:07.360Z,76.10
2023-05-19T10:24:56.054Z,76.70
2023-05-19T10:27:48.323Z,81.10
2023-05-19T10:30:47.783Z,77.50
2023-05-19T10:34:01.486Z,76.60
2023-05-19T10:37:12.860Z,74.80
2023-05-19T10:40:01.206Z,75.70
2023-05-19T10:43:04.061Z,72.10
2023-05-19T10:45:54.496Z,70.40
2023-05-19T10:48:48.777Z,72.60
2023-05-19T10:51:37.108Z,65.20
2023-05-19T10:54:46.958Z,65.30
2023-05-19T10:57:34.938Z,66.50
2023-05-19T11:00:49.372Z,66.50
2023-05-19T11:03:53.457Z,69.80
2023-05-19T11:06:41.298Z,70.00
2023-05-19T11:09:39.678Z,73.80
2023-05-19T11:12:24.660Z,70.90
2023-05-19T11:15:16.591Z,64.90
2023-05-19T11:18:05.245Z,63.90
2023-05-19T11:20:59.169Z,64.00
2023-05-19T11:23:46.931Z,64.20
2023-05-19T11:26:43.239Z,64.20
2023-05-19T11:29:34.231Z,68.00
2023-05-19T11:32:22.907Z,69.10
2023-05-19T11:35:11.321Z,61.20
2023-05-19T11:37:59.640Z,62.80
2023-05-19T11:40:47.820Z,63.20
2023-05-19T11:43:35.390Z,65.20
2023-05-19T11:46:23.035Z,65.70
2023-05-19T11:49:10.714Z,64.90
2023-05-19T11:52:02.743Z,64.70
2023-05-19T11:54:51.089Z,65.20
2023-05-19T11:57:39.628Z,63.90
2023-05-19T12:00:28.792Z,61.50
2023-05-19T12:03:19.785Z,70.60
2023-05-19T12:06:08.406Z,62.90
2023-05-19T12:08:56.632Z,59.90
2023-05-19T12:11:45.245Z,60.70
2023-05-19T12:14:32.762Z,64.20
2023-05-19T12:17:24.008Z,67.40
2023-05-19T12:20:12.833Z,61.30
2023-05-19T12:23:01.165Z,61.50
2023-05-19T12:25:49.095Z,68.10
2023-05-19T12:28:36.736Z,63.30
2023-05-19T12:31:24.165Z,62.90
2023-05-19T12:34:13.562Z,61.70
2023-05-19T12:37:02.954Z,63.60
2023-05-19T12:39:51.102Z,63.40
2023-05-19T12:42:38.579Z,63.20
2023-05-19T12:45:29.020Z,62.60
2023-05-19T12:48:17.571Z,62.70
2023-05-19T12:51:05.715Z,64.20
2023-05-19T12:53:53.294Z,62.60
2023-05-19T12:56:44.042Z,64.20
2023-05-19T12:59:38.652Z,62.80
2023-05-19T13:02:25.671Z,62.00
2023-05-19T13:05:13.647Z,62.20
2023-05-19T13:08:04.009Z,64.50
2023-05-19T13:10:51.076Z,61.20
2023-05-19T13:13:38.722Z,60.60
2023-05-19T13:16:26.346Z,61.10
2023-05-19T13:19:25.540Z,66.20
2023-05-19T13:22:08.221Z,60.10
2023-05-19T13:24:57.242Z,59.60
2023-05-19T13:27:52.105Z,57.40
2023-05-19T13:30:36.949Z,61.30
2023-05-19T13:33:25.218Z,59.10
2023-05-19T13:36:12.794Z,57.50
2023-05-19T13:39:00.858Z,58.10
2023-05-19T13:41:49.669Z,59.80
2023-05-19T13:44:37.776Z,60.30
2023-05-19T13:47:25.741Z,61.80
2023-05-19T13:50:13.501Z,57.40
2023-05-19T13:53:01.417Z,61.10
2023-05-19T13:55:49.325Z,55.40
2023-05-19T13:58:36.675Z,56.30
2023-05-19T14:01:24.552Z,56.80
2023-05-19T14:04:12.190Z,57.80
2023-05-19T14:06:59.817Z,57.20
2023-05-19T14:09:48.927Z,58.00
2023-05-19T14:12:58.102Z,57.30
2023-05-19T14:15:27.370Z,57.40
2023-05-19T14:18:16.354Z,57.40
2023-05-19T14:21:03.678Z,57.50
2023-05-19T14:23:51.076Z,58.10
2023-05-19T14:26:38.847Z,58.70
2023-05-19T14:29:26.222Z,59.00
2023-05-19T14:32:14.623Z,58.30
2023-05-19T14:35:02.127Z,57.60
2023-05-19T14:37:49.476Z,57.50
2023-05-19T14:40:40.337Z,57.80
2023-05-19T14:43:27.939Z,58.40
2023-05-19T14:46:15.682Z,56.80
2023-05-19T14:49:03.522Z,58.30
2023-05-19T14:51:51.066Z,58.10
2023-05-19T14:54:38.703Z,58.10
2023-05-19T14:57:26.209Z,58.40
2023-05-19T15:00:14.513Z,60.50
2023-05-19T15:03:02.301Z,60.70
2023-05-19T15:05:49.800Z,60.60
2023-05-19T15:08:38.999Z,60.30
2023-05-19T15:11:26.436Z,59.20
2023-05-19T15:14:13.856Z,60.10
2023-05-19T15:17:01.285Z,59.60
2023-05-19T15:19:49.032Z,60.60
2023-05-19T15:22:36.883Z,60.50
2023-05-19T15:25:24.498Z,59.90
2023-05-19T15:28:12.571Z,59.80
2023-05-19T15:31:00.556Z,60.90
2023-05-19T15:33:48.239Z,62.20
2023-05-19T15:36:36.916Z,60.60
2023-05-19T15:39:24.811Z,62.10
2023-05-19T15:42:12.944Z,61.20
2023-05-19T15:45:00.922Z,61.20
2023-05-19T15:47:48.672Z,62.20
2023-05-19T15:50:36.512Z,63.90
2023-05-19T15:53:23.952Z,61.80
2023-05-19T15:56:11.622Z,60.80
2023-05-19T15:58:59.249Z,60.30
2023-05-19T16:01:49.546Z,60.50
2023-05-19T16:04:37.712Z,61.70
2023-05-19T16:07:25.563Z,63.50
2023-05-19T16:10:13.194Z,62.70
2023-05-19T16:13:00.772Z,61.50
2023-05-19T16:15:48.566Z,62.20
2023-05-19T16:18:36.133Z,61.00
2023-05-19T16:21:23.732Z,60.60
2023-05-19T16:24:11.101Z,59.80
2023-05-19T16:26:58.533Z,62.70
2023-05-19T16:29:45.883Z,57.90
2023-05-19T16:32:33.861Z,58.00
2023-05-19T16:35:22.320Z,57.20
2023-05-19T16:38:09.426Z,57.40
2023-05-19T16:40:56.536Z,56.80
2023-05-19T16:43:44.013Z,56.70
2023-05-19T16:46:31.749Z,55.80
2023-05-19T16:49:19.142Z,56.90
2023-05-19T16:52:06.707Z,56.70
2023-05-19T16:54:54.339Z,56.50
2023-05-19T16:57:41.901Z,57.40
2023-05-19T17:00:29.861Z,58.10
2023-05-19T17:03:20.374Z,58.90
2023-05-19T17:06:08.039Z,58.60
2023-05-19T17:08:55.476Z,57.80
2023-05-19T17:11:42.887Z,58.00
2023-05-19T17:14:30.104Z,58.50
2023-05-19T17:17:19.328Z,58.20
2023-05-19T17:20:07.504Z,59.00
2023-05-19T17:22:54.680Z,59.70
2023-05-19T17:25:42.585Z,58.90
2023-05-19T17:28:29.987Z,59.80
2023-05-19T17:31:17.518Z,58.60
2023-05-19T17:34:05.020Z,58.50
2023-05-19T17:36:55.160Z,58.80
2023-05-19T17:39:42.754Z,58.30
2023-05-19T17:42:31.579Z,57.90
2023-05-19T17:45:19.219Z,58.10
2023-05-19T17:48:07.098Z,57.70
2023-05-19T17:50:54.782Z,57.60
2023-05-19T17:53:42.942Z,57.50
2023-05-19T17:56:34.012Z,56.60
2023-05-19T17:59:21.699Z,56.80
2023-05-19T18:02:10.535Z,56.70
2023-05-19T18:04:58.317Z,56.70
2023-05-19T18:07:47.439Z,56.60
2023-05-19T18:10:39.879Z,57.70
2023-05-19T18:13:27.269Z,58.60
2023-05-19T18:16:14.804Z,59.30
2023-05-19T18:19:02.789Z,60.10
2023-05-19T18:21:51.416Z,60.80
2023-05-19T18:24:38.842Z,60.90
2023-05-19T18:27:27.886Z,61.20
2023-05-19T18:30:18.168Z,61.20
2023-05-19T18:33:07.313Z,60.60
2023-05-19T18:35:54.816Z,60.90
2023-05-19T18:38:42.616Z,60.90
2023-05-19T18:41:31.070Z,61.20
2023-05-19T18:44:18.474Z,60.70
2023-05-19T18:47:06.261Z,60.70
2023-05-19T18:49:53.905Z,61.70
2023-05-19T18:52:41.568Z,61.70
2023-05-19T18:55:28.916Z,62.40
2023-05-19T18:58:18.356Z,62.90
2023-05-19T19:01:05.759Z,63.60
2023-05-19T19:03:53.116Z,64.50
2023-05-19T19:06:41.878Z,64.90
2023-05-19T19:09:29.726Z,65.40
2023-05-19T19:12:19.005Z,65.50
2023-05-19T19:15:06.404Z,65.60
2023-05-19T19:17:53.999Z,65.70
2023-05-19T19:20:41.508Z,66.40
2023-05-19T19:23:29.033Z,66.40
2023-05-19T19:26:18.661Z,66.70
2023-05-19T19:29:05.824Z,66.50
2023-05-19T19:31:53.045Z,66.60
2023-05-19T19:34:40.461Z,66.70
2023-05-19T19:37:27.789Z,67.30
2023-05-19T19:40:15.494Z,67.10
2023-05-19T19:43:02.875Z,67.40
2023-05-19T19:45:52.171Z,68.40
2023-05-19T19:48:39.441Z,68.20
2023-05-19T19:51:27.180Z,68.30
2023-05-19T19:54:14.951Z,68.70
2023-05-19T19:57:02.250Z,68.80
2023-05-19T19:59:51.445Z,68.80
2023-05-19T20:02:55.361Z,69.10
2023-05-19T20:05:28.956Z,69.20
2023-05-19T20:08:16.653Z,69.40
2023-05-19T20:11:04.030Z,69.50
2023-05-19T20:13:52.113Z,70.10
2023-05-19T20:16:41.493Z,70.70
2023-05-19T20:19:28.849Z,70.30
2023-05-19T20:22:16.701Z,70.50
2023-05-19T20:25:03.916Z,70.60
2023-05-19T20:27:51.796Z,70.50
2023-05-19T20:30:39.131Z,70.50
2023-05-19T20:33:26.716Z,71.30
2023-05-19T20:36:14.118Z,71.50
2023-05-19T20:39:02.720Z,71.70
2023-05-19T20:41:50.264Z,72.10
2023-05-19T20:44:37.921Z,72.40
2023-05-19T20:47:25.812Z,72.80
2023-05-19T20:50:13.112Z,72.90
2023-05-19T20:53:02.085Z,73.30
2023-05-19T20:55:49.548Z,73.80
2023-05-19T20:58:37.265Z,73.90
2023-05-19T21:01:26.063Z,73.80
2023-05-19T21:04:12.919Z,74.00
2023-05-19T21:07:02.023Z,74.40
2023-05-19T21:09:51.011Z,74.90
2023-05-19T21:12:38.581Z,75.00
2023-05-19T21:15:26.967Z,75.50
2023-05-19T21:18:14.898Z,76.20
2023-05-19T21:21:05.487Z,76.90
2023-05-19T21:23:53.166Z,77.30
2023-05-19T21:26:42.903Z,77.60
2023-05-19T21:29:30.566Z,78.50
2023-05-19T21:32:17.866Z,79.10
2023-05-19T21:35:06.166Z,79.30
2023-05-19T21:37:53.899Z,80.00
2023-05-19T21:40:41.660Z,80.30
2023-05-19T21:43:28.931Z,80.40
2023-05-19T21:46:18.428Z,80.70
2023-05-19T21:49:07.069Z,81.00
2023-05-19T21:51:54.805Z,81.30
2023-05-19T21:54:42.261Z,82.20
2023-05-19T21:57:29.690Z,82.40
2023-05-19T22:00:19.023Z,83.00
2023-05-19T22:03:06.722Z,83.70
2023-05-19T22:05:55.264Z,84.10
2023-05-19T22:08:42.741Z,84.60
2023-05-19T22:11:30.238Z,85.10
2023-05-19T22:14:20.684Z,85.30
2023-05-19T22:17:08.353Z,85.90
2023-05-19T22:19:55.764Z,86.10
2023-05-19T22:22:43.167Z,85.90
2023-05-19T22:25:30.619Z,87.00
2023-05-19T22:28:18.276Z,87.10
2023-05-19T22:31:06.333Z,87.60
2023-05-19T22:33:53.885Z,88.10
2023-05-19T22:36:41.538Z,88.30
2023-05-19T22:39:29.383Z,89.50
2023-05-19T22:42:18.411Z,89.00
2023-05-19T22:45:06.855Z,89.20
2023-05-19T22:47:55.548Z,89.80
2023-05-19T22:50:42.938Z,90.20
2023-05-19T22:53:30.535Z,90.50
2023-05-19T22:56:18.367Z,90.70
2023-05-19T22:59:05.763Z,91.00
2023-05-19T23:01:53.123Z,91.20
2023-05-19T23:04:42.179Z,91.30
2023-05-19T23:07:30.041Z,91.70
2023-05-19T23:10:19.125Z,91.60
2023-05-19T23:13:06.658Z,91.90
2023-05-19T23:15:54.056Z,92.40
2023-05-19T23:18:42.051Z,92.80
2023-05-19T23:21:32.826Z,92.90
2023-05-19T23:24:20.237Z,93.10
2023-05-19T23:27:08.000Z,93.30
2023-05-19T23:29:57.172Z,93.80
2023-05-19T23:32:44.458Z,94.00
2023-05-19T23:35:31.591Z,94.20
2023-05-19T23:38:20.868Z,94.70
2023-05-19T23:41:07.839Z,94.90
2023-05-19T23:43:55.084Z,95.10
2023-05-19T23:46:42.530Z,95.30
2023-05-19T23:49:30.060Z,95.60
2023-05-19T23:52:19.281Z,96.10
2023-05-19T23:55:07.689Z,96.30
2023-05-19T23:57:54.924Z,96.70
